Sprouses Corner, Virginia
Current Conditions -  °F | °C
As of 9:35 AM on Sunday 23 Nov 2014 (Local Time) from KFVX Reporting Station
Clear Clear  
Wind Chill: 41°   Ceiling: Unl
Heat Index: 44°   Visibility: 10mi
Dew Point: 26°   Wind: 5mph
Humidity: 49%   Direction: 200°SSW
Pressure: 30.21"   Gusts: NA
Location:  37.522°N, 78.4779°W
Report Text: KFVX 231435Z AUTO 20004KT 10SM CLR 07/M04 A3021 RMK AO2 T00651036
Loading
Personal Weather Stations






























Interactive Weather Map New forecast layout! Learn more

10-Day Weather Forecast

Advertisements
Track Severe Weather on mobile